GLO1171 SBCT-SBGR
Flight info
| Callsign | GLO1171 |
|---|---|
| Flight time | 0h 48m |
| Altitude | 27000 |
| Route | XONUG UZ121 BUXUK |
| Aircraft | B738/M-SDE2E3FGHIRWXY/LB1 |
Departure
| Time | 2026-05-04 19:14 |
|---|---|
| Airport | Curitiba-Afonso Pena International Airport (SBCT) |
Arrival
| Time | 2026-05-04 20:02 |
|---|---|
| Airport | São Paulo/Guarulhos–Governor André Franco Montoro International Airport (SBGR) |
| Time | Latitude | Longitude | Altitude | Speed | Heading |
|---|---|---|---|---|---|
| 2026-05-04 19:03 | -25.53574 | -49.17209 | 2998 ft | 0 kts | 225° |
| 2026-05-04 19:06 | -25.53565 | -49.17199 | 2998 ft | 2 kts | 225° |
| 2026-05-04 19:06 | -25.53554 | -49.17187 | 2998 ft | 2 kts | 225° |
| 2026-05-04 19:07 | -25.53543 | -49.17175 | 2998 ft | 2 kts | 216° |
| 2026-05-04 19:07 | -25.53529 | -49.17170 | 2998 ft | 2 kts | 177° |
| 2026-05-04 19:07 | -25.53515 | -49.17175 | 2998 ft | 2 kts | 143° |
| 2026-05-04 19:07 | -25.53505 | -49.17186 | 2998 ft | 2 kts | 132° |
| 2026-05-04 19:08 | -25.53496 | -49.17196 | 2998 ft | 0 kts | 137° |
| 2026-05-04 19:08 | -25.53495 | -49.17197 | 2998 ft | 0 kts | 137° |
| 2026-05-04 19:10 | -25.53500 | -49.17191 | 2998 ft | 5 kts | 137° |
| 2026-05-04 19:10 | -25.53554 | -49.17133 | 2998 ft | 11 kts | 134° |
| 2026-05-04 19:10 | -25.53605 | -49.17070 | 2998 ft | 10 kts | 118° |
| 2026-05-04 19:10 | -25.53597 | -49.17001 | 2998 ft | 8 kts | 75° |
| 2026-05-04 19:11 | -25.53609 | -49.16944 | 2998 ft | 7 kts | 118° |
| 2026-05-04 19:11 | -25.53626 | -49.16894 | 2998 ft | 6 kts | 106° |
| 2026-05-04 19:11 | -25.53628 | -49.16849 | 2998 ft | 5 kts | 90° |
| 2026-05-04 19:11 | -25.53628 | -49.16811 | 2998 ft | 4 kts | 90° |
| 2026-05-04 19:12 | -25.53628 | -49.16766 | 2998 ft | 7 kts | 90° |
| 2026-05-04 19:12 | -25.53600 | -49.16734 | 2998 ft | 0 kts | 315° |
| 2026-05-04 19:13 | -25.53599 | -49.16734 | 2998 ft | 1 kts | 315° |
| 2026-05-04 19:13 | -25.53459 | -49.16888 | 2998 ft | 65 kts | 314° |
| 2026-05-04 19:13 | -25.52974 | -49.17432 | 2998 ft | 131 kts | 314° |
| 2026-05-04 19:13 | -25.52194 | -49.18305 | 3078 ft | 178 kts | 315° |
| 2026-05-04 19:14 | -25.51416 | -49.19385 | 3690 ft | 186 kts | 301° |
| 2026-05-04 19:14 | -25.50768 | -49.20577 | 4443 ft | 182 kts | 302° |
| 2026-05-04 19:14 | -25.50240 | -49.21836 | 5105 ft | 185 kts | 294° |
| 2026-05-04 19:14 | -25.49706 | -49.23181 | 5637 ft | 195 kts | 298° |
| 2026-05-04 19:15 | -25.49044 | -49.24513 | 6182 ft | 205 kts | 301° |
| 2026-05-04 19:15 | -25.48277 | -49.25930 | 6634 ft | 222 kts | 304° |
| 2026-05-04 19:15 | -25.47222 | -49.27250 | 7168 ft | 239 kts | 323° |
| 2026-05-04 19:15 | -25.45641 | -49.27988 | 7783 ft | 256 kts | 349° |
| 2026-05-04 19:16 | -25.43807 | -49.27911 | 8413 ft | 274 kts | 10° |
| 2026-05-04 19:16 | -25.41983 | -49.27149 | 9190 ft | 285 kts | 21° |
| 2026-05-04 19:16 | -25.40203 | -49.26144 | 9981 ft | 292 kts | 24° |
| 2026-05-04 19:16 | -25.38378 | -49.25075 | 10683 ft | 301 kts | 24° |
| 2026-05-04 19:17 | -25.36482 | -49.23992 | 11161 ft | 317 kts | 23° |
| 2026-05-04 19:17 | -25.34462 | -49.22865 | 11640 ft | 333 kts | 24° |
| 2026-05-04 19:17 | -25.32428 | -49.21476 | 12078 ft | 353 kts | 34° |
| 2026-05-04 19:17 | -25.30513 | -49.19649 | 12577 ft | 369 kts | 41° |
| 2026-05-04 19:18 | -25.28694 | -49.17633 | 13215 ft | 377 kts | 43° |
| 2026-05-04 19:18 | -25.26854 | -49.15513 | 13949 ft | 382 kts | 44° |
| 2026-05-04 19:18 | -25.24992 | -49.13380 | 14597 ft | 388 kts | 44° |
| 2026-05-04 19:18 | -25.23098 | -49.11248 | 15314 ft | 392 kts | 43° |
| 2026-05-04 19:19 | -25.21158 | -49.09097 | 16006 ft | 397 kts | 43° |
| 2026-05-04 19:19 | -25.19189 | -49.06936 | 16638 ft | 402 kts | 43° |
| 2026-05-04 19:19 | -25.17187 | -49.04753 | 17245 ft | 408 kts | 43° |
| 2026-05-04 19:19 | -25.15166 | -49.02554 | 17867 ft | 412 kts | 43° |
| 2026-05-04 19:20 | -25.13084 | -49.00291 | 18475 ft | 418 kts | 43° |
| 2026-05-04 19:20 | -25.11026 | -48.98058 | 19094 ft | 422 kts | 43° |
| 2026-05-04 19:20 | -25.08894 | -48.95744 | 19673 ft | 428 kts | 43° |
| 2026-05-04 19:20 | -25.06792 | -48.93446 | 20284 ft | 432 kts | 43° |
| 2026-05-04 19:21 | -25.04614 | -48.91082 | 20874 ft | 437 kts | 43° |
| 2026-05-04 19:21 | -25.02445 | -48.88732 | 21524 ft | 439 kts | 43° |
| 2026-05-04 19:21 | -25.00289 | -48.86400 | 22263 ft | 438 kts | 43° |
| 2026-05-04 19:21 | -24.98096 | -48.84027 | 23026 ft | 437 kts | 43° |
| 2026-05-04 19:22 | -24.95934 | -48.81687 | 23743 ft | 436 kts | 43° |
| 2026-05-04 19:22 | -24.93750 | -48.79324 | 24403 ft | 436 kts | 43° |
| 2026-05-04 19:22 | -24.91579 | -48.76975 | 25037 ft | 436 kts | 43° |
| 2026-05-04 19:22 | -24.89429 | -48.74650 | 25690 ft | 435 kts | 43° |
| 2026-05-04 19:23 | -24.87256 | -48.72301 | 26284 ft | 435 kts | 43° |
| 2026-05-04 19:23 | -24.85093 | -48.69962 | 26891 ft | 434 kts | 43° |
| 2026-05-04 19:23 | -24.82932 | -48.67627 | 27167 ft | 439 kts | 43° |
| 2026-05-04 19:23 | -24.80750 | -48.65271 | 27157 ft | 439 kts | 43° |
| 2026-05-04 19:24 | -24.78587 | -48.62935 | 27151 ft | 435 kts | 43° |
| 2026-05-04 19:24 | -24.76426 | -48.60604 | 27144 ft | 435 kts | 43° |
| 2026-05-04 19:24 | -24.74255 | -48.58263 | 27135 ft | 435 kts | 43° |
| 2026-05-04 19:24 | -24.72085 | -48.55925 | 27133 ft | 436 kts | 43° |
| 2026-05-04 19:25 | -24.69935 | -48.53611 | 27126 ft | 435 kts | 43° |
| 2026-05-04 19:25 | -24.67751 | -48.51261 | 27125 ft | 435 kts | 43° |
| 2026-05-04 19:25 | -24.65600 | -48.48948 | 27121 ft | 437 kts | 43° |
| 2026-05-04 19:25 | -24.63443 | -48.46630 | 27119 ft | 436 kts | 43° |
| 2026-05-04 19:26 | -24.61261 | -48.44285 | 27119 ft | 437 kts | 43° |
| 2026-05-04 19:26 | -24.59086 | -48.41948 | 27115 ft | 437 kts | 43° |
| 2026-05-04 19:26 | -24.56941 | -48.39645 | 27115 ft | 435 kts | 43° |
| 2026-05-04 19:26 | -24.54763 | -48.37308 | 27115 ft | 435 kts | 43° |
| 2026-05-04 19:27 | -24.52584 | -48.34971 | 27114 ft | 435 kts | 42° |
| 2026-05-04 19:27 | -24.50435 | -48.32668 | 27111 ft | 434 kts | 42° |
| 2026-05-04 19:27 | -24.48277 | -48.30357 | 27110 ft | 435 kts | 42° |
| 2026-05-04 19:27 | -24.46107 | -48.28034 | 27113 ft | 436 kts | 42° |
| 2026-05-04 19:28 | -24.43931 | -48.25705 | 27117 ft | 436 kts | 42° |
| 2026-05-04 19:28 | -24.41758 | -48.23379 | 27121 ft | 436 kts | 42° |
| 2026-05-04 19:28 | -24.39586 | -48.21056 | 27125 ft | 435 kts | 42° |
| 2026-05-04 19:28 | -24.37395 | -48.18735 | 27124 ft | 436 kts | 41° |
| 2026-05-04 19:29 | -24.35154 | -48.16519 | 27121 ft | 435 kts | 37° |
| 2026-05-04 19:29 | -24.32719 | -48.14570 | 27128 ft | 433 kts | 30° |
| 2026-05-04 19:29 | -24.30166 | -48.12888 | 27126 ft | 430 kts | 26° |
| 2026-05-04 19:29 | -24.27529 | -48.11325 | 27124 ft | 429 kts | 24° |
| 2026-05-04 19:30 | -24.24864 | -48.09813 | 27124 ft | 430 kts | 23° |
| 2026-05-04 19:30 | -24.22192 | -48.08310 | 27123 ft | 428 kts | 24° |
| 2026-05-04 19:30 | -24.19561 | -48.06821 | 27123 ft | 429 kts | 24° |
| 2026-05-04 19:30 | -24.16896 | -48.05297 | 27129 ft | 429 kts | 24° |
| 2026-05-04 19:31 | -24.14267 | -48.03780 | 27134 ft | 430 kts | 24° |
| 2026-05-04 19:31 | -24.11612 | -48.02239 | 27141 ft | 431 kts | 24° |
| 2026-05-04 19:31 | -24.08956 | -48.00691 | 27148 ft | 430 kts | 25° |
| 2026-05-04 19:31 | -24.06342 | -47.99163 | 27154 ft | 429 kts | 25° |
| 2026-05-04 19:32 | -24.03686 | -47.97608 | 27161 ft | 430 kts | 25° |
| 2026-05-04 19:32 | -24.01056 | -47.96067 | 27171 ft | 430 kts | 25° |
| 2026-05-04 19:32 | -23.98397 | -47.94508 | 27176 ft | 430 kts | 25° |
| 2026-05-04 19:32 | -23.95765 | -47.92966 | 27177 ft | 430 kts | 25° |
| 2026-05-04 19:33 | -23.93139 | -47.91426 | 27180 ft | 429 kts | 25° |
| 2026-05-04 19:33 | -23.90504 | -47.89880 | 27178 ft | 429 kts | 25° |
| 2026-05-04 19:33 | -23.87856 | -47.88328 | 27180 ft | 430 kts | 25° |
| 2026-05-04 19:33 | -23.85176 | -47.86758 | 27179 ft | 430 kts | 25° |
| 2026-05-04 19:34 | -23.82514 | -47.85199 | 27169 ft | 430 kts | 25° |
| 2026-05-04 19:34 | -23.79859 | -47.83640 | 27171 ft | 430 kts | 26° |
| 2026-05-04 19:34 | -23.77256 | -47.81916 | 27175 ft | 432 kts | 31° |
| 2026-05-04 19:34 | -23.74819 | -47.79932 | 27173 ft | 434 kts | 37° |
| 2026-05-04 19:35 | -23.72525 | -47.77752 | 27172 ft | 435 kts | 40° |
| 2026-05-04 19:35 | -23.70292 | -47.75455 | 27174 ft | 435 kts | 42° |
| 2026-05-04 19:35 | -23.68118 | -47.73141 | 27168 ft | 436 kts | 43° |
| 2026-05-04 19:35 | -23.65932 | -47.70790 | 27169 ft | 436 kts | 43° |
| 2026-05-04 19:36 | -23.63770 | -47.68466 | 27163 ft | 436 kts | 43° |
| 2026-05-04 19:36 | -23.61600 | -47.66143 | 27162 ft | 437 kts | 43° |
| 2026-05-04 19:36 | -23.59461 | -47.63866 | 27162 ft | 427 kts | 42° |
| 2026-05-04 19:36 | -23.57364 | -47.61638 | 27123 ft | 414 kts | 42° |
| 2026-05-04 19:37 | -23.55322 | -47.59477 | 26860 ft | 406 kts | 42° |
| 2026-05-04 19:37 | -23.53293 | -47.57336 | 26452 ft | 404 kts | 42° |
| 2026-05-04 19:37 | -23.51271 | -47.55209 | 25995 ft | 402 kts | 42° |
| 2026-05-04 19:37 | -23.49230 | -47.53116 | 25543 ft | 399 kts | 37° |
| 2026-05-04 19:38 | -23.46904 | -47.51567 | 25107 ft | 389 kts | 18° |
| 2026-05-04 19:38 | -23.44301 | -47.50942 | 24733 ft | 374 kts | 356° |
| 2026-05-04 19:38 | -23.41791 | -47.51312 | 24476 ft | 353 kts | 335° |
| 2026-05-04 19:38 | -23.39589 | -47.52346 | 24334 ft | 337 kts | 327° |
| 2026-05-04 19:39 | -23.37514 | -47.53581 | 24231 ft | 341 kts | 324° |
| 2026-05-04 19:39 | -23.35386 | -47.54927 | 24122 ft | 356 kts | 324° |
| 2026-05-04 19:39 | -23.33240 | -47.56308 | 24009 ft | 354 kts | 324° |
| 2026-05-04 19:39 | -23.31152 | -47.57650 | 23894 ft | 343 kts | 324° |
| 2026-05-04 19:40 | -23.29003 | -47.58847 | 23878 ft | 342 kts | 333° |
| 2026-05-04 19:40 | -23.26606 | -47.59411 | 23884 ft | 366 kts | 354° |
| 2026-05-04 19:40 | -23.23996 | -47.59029 | 23887 ft | 384 kts | 15° |
| 2026-05-04 19:40 | -23.21604 | -47.57692 | 23879 ft | 388 kts | 36° |
| 2026-05-04 19:41 | -23.19722 | -47.55565 | 23699 ft | 393 kts | 56° |
| 2026-05-04 19:41 | -23.18584 | -47.52909 | 23450 ft | 388 kts | 76° |
| 2026-05-04 19:41 | -23.18080 | -47.50052 | 23200 ft | 383 kts | 84° |
| 2026-05-04 19:41 | -23.17740 | -47.47144 | 22933 ft | 380 kts | 85° |
| 2026-05-04 19:42 | -23.17443 | -47.44268 | 22681 ft | 378 kts | 86° |
| 2026-05-04 19:42 | -23.17157 | -47.41431 | 22428 ft | 376 kts | 86° |
| 2026-05-04 19:42 | -23.16871 | -47.38648 | 22180 ft | 375 kts | 86° |
| 2026-05-04 19:42 | -23.16575 | -47.35827 | 21934 ft | 374 kts | 85° |
| 2026-05-04 19:43 | -23.16271 | -47.33013 | 21678 ft | 372 kts | 85° |
| 2026-05-04 19:43 | -23.15966 | -47.30224 | 21431 ft | 371 kts | 85° |
| 2026-05-04 19:43 | -23.15658 | -47.27442 | 21170 ft | 369 kts | 84° |
| 2026-05-04 19:43 | -23.15347 | -47.24663 | 20912 ft | 367 kts | 84° |
| 2026-05-04 19:44 | -23.15039 | -47.21917 | 20664 ft | 365 kts | 84° |
| 2026-05-04 19:44 | -23.14658 | -47.19206 | 20420 ft | 364 kts | 78° |
| 2026-05-04 19:44 | -23.13886 | -47.16597 | 20184 ft | 363 kts | 63° |
| 2026-05-04 19:44 | -23.12520 | -47.14325 | 19939 ft | 360 kts | 49° |
| 2026-05-04 19:45 | -23.10867 | -47.12285 | 19687 ft | 359 kts | 45° |
| 2026-05-04 19:45 | -23.09153 | -47.10299 | 19435 ft | 356 kts | 45° |
| 2026-05-04 19:45 | -23.07451 | -47.08351 | 19209 ft | 350 kts | 45° |
| 2026-05-04 19:45 | -23.05779 | -47.06430 | 19179 ft | 349 kts | 45° |
| 2026-05-04 19:46 | -23.04103 | -47.04493 | 19184 ft | 353 kts | 45° |
| 2026-05-04 19:46 | -23.02419 | -47.02534 | 19184 ft | 352 kts | 45° |
| 2026-05-04 19:46 | -23.00763 | -47.00597 | 19140 ft | 353 kts | 45° |
| 2026-05-04 19:46 | -22.99106 | -46.98652 | 18804 ft | 347 kts | 45° |
| 2026-05-04 19:47 | -22.97466 | -46.96723 | 18222 ft | 347 kts | 45° |
| 2026-05-04 19:47 | -22.95839 | -46.94807 | 17697 ft | 345 kts | 45° |
| 2026-05-04 19:47 | -22.94216 | -46.92899 | 17215 ft | 341 kts | 45° |
| 2026-05-04 19:47 | -22.92633 | -46.91039 | 16741 ft | 337 kts | 45° |
| 2026-05-04 19:48 | -22.91038 | -46.89167 | 16260 ft | 334 kts | 45° |
| 2026-05-04 19:48 | -22.89541 | -46.87286 | 15793 ft | 332 kts | 53° |
| 2026-05-04 19:48 | -22.88543 | -46.85023 | 15276 ft | 331 kts | 78° |
| 2026-05-04 19:48 | -22.88484 | -46.82571 | 14770 ft | 326 kts | 102° |
| 2026-05-04 19:49 | -22.89225 | -46.80275 | 14266 ft | 321 kts | 120° |
| 2026-05-04 19:49 | -22.90561 | -46.78425 | 14152 ft | 307 kts | 142° |
| 2026-05-04 19:49 | -22.92281 | -46.77019 | 14166 ft | 312 kts | 148° |
| 2026-05-04 19:49 | -22.93062 | -46.76442 | 14169 ft | 313 kts | 149° |
| 2026-05-04 19:50 | -22.94872 | -46.75126 | 14170 ft | 313 kts | 149° |
| 2026-05-04 19:50 | -22.96667 | -46.73798 | 14068 ft | 311 kts | 148° |
| 2026-05-04 19:50 | -22.98410 | -46.72475 | 13742 ft | 307 kts | 147° |
| 2026-05-04 19:50 | -23.00164 | -46.71122 | 13366 ft | 306 kts | 147° |
| 2026-05-04 19:51 | -23.01891 | -46.69779 | 12990 ft | 304 kts | 146° |
| 2026-05-04 19:51 | -23.03616 | -46.68433 | 12614 ft | 303 kts | 146° |
| 2026-05-04 19:51 | -23.05322 | -46.67103 | 12240 ft | 302 kts | 146° |
| 2026-05-04 19:51 | -23.07037 | -46.65766 | 11861 ft | 301 kts | 146° |
| 2026-05-04 19:52 | -23.08751 | -46.64429 | 11483 ft | 300 kts | 146° |
| 2026-05-04 19:52 | -23.10437 | -46.63115 | 11113 ft | 300 kts | 146° |
| 2026-05-04 19:52 | -23.12134 | -46.61792 | 10744 ft | 299 kts | 146° |
| 2026-05-04 19:52 | -23.13831 | -46.60468 | 10346 ft | 298 kts | 145° |
| 2026-05-04 19:53 | -23.15501 | -46.59164 | 10075 ft | 292 kts | 145° |
| 2026-05-04 19:53 | -23.17150 | -46.57874 | 9747 ft | 289 kts | 145° |
| 2026-05-04 19:53 | -23.18821 | -46.56652 | 9391 ft | 288 kts | 151° |
| 2026-05-04 19:53 | -23.20665 | -46.55902 | 9202 ft | 278 kts | 175° |
| 2026-05-04 19:54 | -23.22508 | -46.56146 | 9013 ft | 267 kts | 204° |
| 2026-05-04 19:54 | -23.24113 | -46.57153 | 8551 ft | 268 kts | 217° |
| 2026-05-04 19:54 | -23.25636 | -46.58325 | 8204 ft | 268 kts | 217° |
| 2026-05-04 19:54 | -23.27085 | -46.59415 | 8043 ft | 263 kts | 217° |
| 2026-05-04 19:55 | -23.28437 | -46.60767 | 8044 ft | 262 kts | 233° |
| 2026-05-04 19:55 | -23.29519 | -46.62361 | 8043 ft | 263 kts | 238° |
| 2026-05-04 19:55 | -23.30541 | -46.63994 | 7950 ft | 256 kts | 238° |
| 2026-05-04 19:55 | -23.31527 | -46.65583 | 7724 ft | 252 kts | 238° |
| 2026-05-04 19:56 | -23.32537 | -46.67157 | 7437 ft | 252 kts | 232° |
| 2026-05-04 19:56 | -23.33925 | -46.68311 | 7127 ft | 255 kts | 204° |
| 2026-05-04 19:56 | -23.35666 | -46.68605 | 6862 ft | 254 kts | 176° |
| 2026-05-04 19:56 | -23.37377 | -46.68306 | 6743 ft | 240 kts | 169° |
| 2026-05-04 19:57 | -23.38991 | -46.67936 | 6496 ft | 234 kts | 169° |
| 2026-05-04 19:57 | -23.40575 | -46.67576 | 6142 ft | 231 kts | 169° |
| 2026-05-04 19:57 | -23.42168 | -46.67223 | 5783 ft | 232 kts | 169° |
| 2026-05-04 19:57 | -23.43740 | -46.66871 | 5431 ft | 232 kts | 167° |
| 2026-05-04 19:58 | -23.45233 | -46.66264 | 5215 ft | 223 kts | 145° |
| 2026-05-04 19:58 | -23.46259 | -46.65042 | 5216 ft | 212 kts | 120° |
| 2026-05-04 19:58 | -23.46966 | -46.63703 | 5172 ft | 200 kts | 114° |
| 2026-05-04 19:58 | -23.47364 | -46.62275 | 4923 ft | 199 kts | 91° |
| 2026-05-04 19:59 | -23.47167 | -46.60813 | 4625 ft | 193 kts | 71° |
| 2026-05-04 19:59 | -23.47054 | -46.60396 | 4544 ft | 192 kts | 71° |
| 2026-05-04 19:59 | -23.46678 | -46.59037 | 4321 ft | 181 kts | 72° |
| 2026-05-04 19:59 | -23.46332 | -46.57727 | 4069 ft | 178 kts | 72° |
| 2026-05-04 20:00 | -23.45984 | -46.56436 | 3845 ft | 177 kts | 71° |
| 2026-05-04 20:00 | -23.45624 | -46.55143 | 3630 ft | 174 kts | 72° |
| 2026-05-04 20:00 | -23.45298 | -46.53902 | 3387 ft | 168 kts | 73° |
| 2026-05-04 20:00 | -23.44968 | -46.52687 | 3183 ft | 167 kts | 72° |
| 2026-05-04 20:01 | -23.44631 | -46.51475 | 2964 ft | 167 kts | 73° |
| 2026-05-04 20:01 | -23.44313 | -46.50265 | 2762 ft | 162 kts | 73° |
| 2026-05-04 20:01 | -23.43995 | -46.49118 | 2579 ft | 156 kts | 73° |
| 2026-05-04 20:01 | -23.43696 | -46.48018 | 2446 ft | 136 kts | 72° |
| 2026-05-04 20:02 | -23.43497 | -46.47272 | 2446 ft | 71 kts | 75° |
| 2026-05-04 20:02 | -23.43394 | -46.46885 | 2447 ft | 37 kts | 73° |
| 2026-05-04 20:02 | -23.43326 | -46.46635 | 2447 ft | 33 kts | 75° |
| 2026-05-04 20:02 | -23.43258 | -46.46441 | 2447 ft | 23 kts | 59° |
| 2026-05-04 20:03 | -23.43166 | -46.46312 | 2447 ft | 19 kts | 47° |
| 2026-05-04 20:03 | -23.43076 | -46.46215 | 2448 ft | 17 kts | 43° |
| 2026-05-04 20:03 | -23.42989 | -46.46141 | 2448 ft | 12 kts | 20° |
| 2026-05-04 20:03 | -23.42962 | -46.46139 | 2448 ft | 0 kts | 351° |
| 2026-05-04 20:04 | -23.42944 | -46.46144 | 2448 ft | 10 kts | 346° |
| 2026-05-04 20:05 | -23.42861 | -46.46169 | 2448 ft | 11 kts | 343° |
| 2026-05-04 20:05 | -23.42785 | -46.46193 | 2448 ft | 10 kts | 344° |
| 2026-05-04 20:05 | -23.42716 | -46.46215 | 2448 ft | 9 kts | 343° |
| 2026-05-04 20:05 | -23.42654 | -46.46235 | 2448 ft | 8 kts | 340° |
| 2026-05-04 20:06 | -23.42623 | -46.46294 | 2448 ft | 10 kts | 264° |
| 2026-05-04 20:06 | -23.42647 | -46.46392 | 2448 ft | 14 kts | 253° |
| 2026-05-04 20:06 | -23.42674 | -46.46495 | 2448 ft | 13 kts | 254° |
| 2026-05-04 20:06 | -23.42700 | -46.46587 | 2448 ft | 12 kts | 253° |
| 2026-05-04 20:07 | -23.42722 | -46.46672 | 2448 ft | 11 kts | 254° |
| 2026-05-04 20:07 | -23.42748 | -46.46766 | 2447 ft | 14 kts | 254° |
| 2026-05-04 20:07 | -23.42776 | -46.46869 | 2447 ft | 13 kts | 253° |
| 2026-05-04 20:07 | -23.42802 | -46.46964 | 2447 ft | 12 kts | 253° |
| 2026-05-04 20:08 | -23.42823 | -46.47041 | 2447 ft | 11 kts | 253° |
| 2026-05-04 20:08 | -23.42845 | -46.47121 | 2447 ft | 10 kts | 254° |
| 2026-05-04 20:08 | -23.42863 | -46.47193 | 2447 ft | 9 kts | 254° |
| 2026-05-04 20:08 | -23.42877 | -46.47243 | 2447 ft | 8 kts | 254° |
| 2026-05-04 20:09 | -23.42898 | -46.47324 | 2447 ft | 17 kts | 253° |
| 2026-05-04 20:09 | -23.42934 | -46.47453 | 2447 ft | 17 kts | 253° |
| 2026-05-04 20:09 | -23.42967 | -46.47575 | 2446 ft | 16 kts | 254° |
| 2026-05-04 20:09 | -23.42998 | -46.47691 | 2446 ft | 15 kts | 253° |
| 2026-05-04 20:10 | -23.43026 | -46.47796 | 2446 ft | 13 kts | 254° |
| 2026-05-04 20:10 | -23.43052 | -46.47892 | 2446 ft | 12 kts | 254° |
| 2026-05-04 20:10 | -23.43077 | -46.47980 | 2446 ft | 11 kts | 253° |
| 2026-05-04 20:10 | -23.43098 | -46.48062 | 2446 ft | 12 kts | 255° |
| 2026-05-04 20:11 | -23.43127 | -46.48167 | 2446 ft | 14 kts | 254° |
| 2026-05-04 20:11 | -23.43152 | -46.48265 | 2446 ft | 12 kts | 255° |
| 2026-05-04 20:11 | -23.43177 | -46.48354 | 2446 ft | 11 kts | 261° |
| 2026-05-04 20:11 | -23.43138 | -46.48417 | 2446 ft | 10 kts | 340° |
| 2026-05-04 20:12 | -23.43069 | -46.48440 | 2446 ft | 12 kts | 343° |
| 2026-05-04 20:12 | -23.42979 | -46.48451 | 2446 ft | 12 kts | 1° |
| 2026-05-04 20:12 | -23.42897 | -46.48450 | 2446 ft | 11 kts | 0° |
| 2026-05-04 20:12 | -23.42822 | -46.48450 | 2446 ft | 10 kts | 1° |
| 2026-05-04 20:13 | -23.42781 | -46.48415 | 2446 ft | 5 kts | 75° |
| 2026-05-04 20:13 | -23.42777 | -46.48378 | 2446 ft | 4 kts | 85° |
| 2026-05-04 20:13 | -23.42776 | -46.48363 | 2446 ft | 0 kts | 85° |
| 2026-05-04 20:14 | -23.42776 | -46.48362 | 2446 ft | 0 kts | 84° |